Time;durP1;ratioP1;P1;durP2;ratioP2;P2;SDS_P1;SDS_P2;PMS_P1;PMS_P2;Temp;Humidity;BMP_temperature;BMP_pressure;BME280_temperature;BME280_humidity;BME280_pressure;Samples;Min_cycle;Max_cycle;Signal;HPM_P1;HPM_P2
2023/09/01 00:02:21;;;;;;;8.18;3.65;;;11.40;99.90;;;;;;5088224;28;20059;-81
2023/09/01 00:04:47;;;;;;;3.47;3.17;;;11.40;99.90;;;;;;5079686;28;20146;-80
2023/09/01 00:07:12;;;;;;;5.28;3.80;;;11.30;99.90;;;;;;5084124;28;20130;-81
2023/09/01 00:09:38;;;;;;;4.22;3.70;;;11.30;99.90;;;;;;5082843;28;20445;-81
2023/09/01 00:12:04;;;;;;;5.00;3.63;;;11.40;99.90;;;;;;5087728;28;20139;-81
2023/09/01 00:14:30;;;;;;;4.95;3.45;;;11.30;99.90;;;;;;5074800;28;20082;-81
2023/09/01 00:16:55;;;;;;;4.93;3.13;;;11.30;99.90;;;;;;5078516;28;20483;-81
2023/09/01 00:19:22;;;;;;;5.80;3.63;;;11.30;99.90;;;;;;5090055;28;20117;-81
2023/09/01 00:21:49;;;;;;;4.68;3.70;;;11.30;99.90;;;;;;5088539;28;20127;-80
2023/09/01 00:24:15;;;;;;;5.28;3.60;;;11.30;99.90;;;;;;5075116;28;20055;-80
2023/09/01 00:26:40;;;;;;;5.57;4.03;;;11.30;99.90;;;;;;5072385;28;20051;-81
2023/09/01 00:29:06;;;;;;;4.63;3.60;;;11.30;99.90;;;;;;5086867;28;20076;-81
2023/09/01 00:31:33;;;;;;;6.38;4.00;;;11.30;99.90;;;;;;5078871;28;20040;-81
2023/09/01 00:33:59;;;;;;;4.30;3.60;;;11.30;99.90;;;;;;5085766;28;20472;-81
2023/09/01 00:36:24;;;;;;;5.50;3.80;;;11.30;99.90;;;;;;5070801;28;20124;-80
2023/09/01 00:38:50;;;;;;;4.57;3.75;;;11.30;99.90;;;;;;5081762;28;20418;-81
2023/09/01 00:41:15;;;;;;;3.90;3.47;;;11.30;99.90;;;;;;5078558;28;20052;-81
2023/09/01 00:43:41;;;;;;;4.28;3.60;;;11.30;99.90;;;;;;5080162;28;20036;-81
2023/09/01 00:46:07;;;;;;;5.18;4.05;;;11.30;99.90;;;;;;5091076;28;20048;-81
2023/09/01 00:48:32;;;;;;;7.35;3.50;;;11.30;99.90;;;;;;5087948;28;20052;-81
2023/09/01 00:50:58;;;;;;;5.75;4.35;;;11.30;99.90;;;;;;5078016;28;20061;-81
2023/09/01 00:53:25;;;;;;;5.55;4.38;;;11.30;99.90;;;;;;5080215;28;20132;-81
2023/09/01 00:55:52;;;;;;;5.97;3.70;;;11.30;99.90;;;;;;5085966;28;20050;-81
2023/09/01 00:58:18;;;;;;;5.75;3.70;;;11.30;99.90;;;;;;5087343;28;20371;-81
2023/09/01 01:00:44;;;;;;;6.45;4.00;;;11.30;99.90;;;;;;5069862;28;20091;-81
2023/09/01 01:03:11;;;;;;;5.30;4.07;;;11.30;99.90;;;;;;5069214;28;20398;-81
2023/09/01 01:05:46;;;;;;;6.78;3.63;;;11.40;99.90;;;;;;5070185;28;20049;-81
2023/09/01 01:08:33;;;;;;;5.18;4.07;;;11.40;99.90;;;;;;5068662;28;20506;-81
2023/09/01 01:11:11;;;;;;;8.60;4.32;;;11.40;99.90;;;;;;5089386;28;20078;-81
2023/09/01 01:13:41;;;;;;;4.22;3.83;;;11.40;99.90;;;;;;5084653;28;20041;-81
2023/09/01 01:16:07;;;;;;;5.03;4.07;;;11.50;99.90;;;;;;5084318;28;20111;-81
2023/09/01 01:18:36;;;;;;;4.50;4.03;;;11.40;99.90;;;;;;5070982;28;20125;-81
2023/09/01 01:21:08;;;;;;;4.60;3.67;;;11.50;99.90;;;;;;5082744;28;20567;-81
2023/09/01 01:23:34;;;;;;;4.05;3.63;;;11.50;99.90;;;;;;5086594;28;20410;-81
2023/09/01 01:26:00;;;;;;;7.97;4.47;;;11.50;99.90;;;;;;5072828;28;20057;-81
2023/09/01 01:28:26;;;;;;;6.13;4.05;;;11.30;99.90;;;;;;5073620;28;20037;-81
2023/09/01 01:30:51;;;;;;;4.90;3.60;;;11.40;99.90;;;;;;5078198;28;20088;-81
2023/09/01 01:33:39;;;;;;;5.40;4.00;;;11.40;99.90;;;;;;5087753;28;20036;-81
2023/09/01 01:36:20;;;;;;;5.22;4.07;;;11.40;99.90;;;;;;5075237;28;20063;-81
2023/09/01 01:38:59;;;;;;;6.50;4.32;;;11.40;99.90;;;;;;5084571;28;20056;-81
2023/09/01 01:41:43;;;;;;;4.63;4.10;;;11.30;99.90;;;;;;5090264;28;20054;-81
2023/09/01 01:44:11;;;;;;;5.22;4.22;;;11.30;99.90;;;;;;5082041;28;20067;-81
2023/09/01 01:46:37;;;;;;;4.70;4.20;;;11.30;99.90;;;;;;5069609;28;20555;-81
2023/09/01 01:49:09;;;;;;;5.75;3.55;;;11.30;99.90;;;;;;5078692;28;20059;-81
2023/09/01 01:51:35;;;;;;;6.20;4.18;;;11.30;99.90;;;;;;5076102;28;20127;-81
2023/09/01 01:54:01;;;;;;;6.32;3.90;;;11.30;99.90;;;;;;5081844;28;20136;-81
2023/09/01 01:56:26;;;;;;;6.00;3.65;;;11.30;99.90;;;;;;5073352;28;20040;-81
2023/09/01 01:58:52;;;;;;;6.32;4.28;;;11.30;99.90;;;;;;5067326;28;20089;-81
2023/09/01 02:01:17;;;;;;;5.85;4.25;;;11.30;99.90;;;;;;5068294;28;20033;-81
2023/09/01 02:03:44;;;;;;;5.40;4.25;;;11.30;99.90;;;;;;5068750;28;20410;-81
2023/09/01 02:06:10;;;;;;;7.47;4.78;;;11.30;99.90;;;;;;5069197;28;20044;-80
2023/09/01 02:08:36;;;;;;;6.45;4.57;;;11.30;99.90;;;;;;5086239;28;20048;-81
2023/09/01 02:11:01;;;;;;;5.53;4.15;;;11.40;99.90;;;;;;5069839;28;20049;-81
2023/09/01 02:13:27;;;;;;;7.50;4.38;;;11.40;99.90;;;;;;5070871;28;20072;-81
2023/09/01 02:15:53;;;;;;;5.00;4.35;;;11.40;99.90;;;;;;5079734;28;20040;-81
2023/09/01 02:18:19;;;;;;;6.30;4.03;;;11.40;99.90;;;;;;5065817;28;20590;-81
2023/09/01 02:20:45;;;;;;;4.95;4.03;;;11.40;99.90;;;;;;5078257;28;20048;-81
2023/09/01 02:23:16;;;;;;;6.40;3.70;;;11.40;99.90;;;;;;5079263;28;20040;-81
2023/09/01 02:25:45;;;;;;;4.50;4.10;;;11.40;99.90;;;;;;5071232;28;20426;-81
2023/09/01 02:28:11;;;;;;;5.18;4.00;;;11.40;99.90;;;;;;5073136;28;20086;-80
2023/09/01 02:30:37;;;;;;;4.72;4.07;;;11.40;99.90;;;;;;5072848;28;20414;-81
2023/09/01 02:33:03;;;;;;;5.30;4.30;;;11.40;99.90;;;;;;5077468;28;20046;-80
2023/09/01 02:35:29;;;;;;;6.88;4.35;;;11.40;99.90;;;;;;5093218;28;20042;-81
2023/09/01 02:37:54;;;;;;;5.43;4.07;;;11.40;99.90;;;;;;5084877;28;20075;-81
2023/09/01 02:40:24;;;;;;;7.22;4.40;;;11.40;99.90;;;;;;5080115;28;20052;-81
2023/09/01 02:42:51;;;;;;;6.30;4.20;;;11.40;99.90;;;;;;5086701;28;20052;-81
2023/09/01 02:45:18;;;;;;;9.38;4.68;;;11.40;99.90;;;;;;5087308;28;20044;-81
2023/09/01 02:47:43;;;;;;;4.78;4.22;;;11.40;99.90;;;;;;5081270;28;20360;-81
2023/09/01 02:50:10;;;;;;;6.28;4.30;;;11.40;99.90;;;;;;5085857;28;20049;-81
2023/09/01 02:52:36;;;;;;;5.13;4.10;;;11.40;99.90;;;;;;5078355;28;20040;-81
2023/09/01 02:55:01;;;;;;;5.75;4.38;;;11.40;99.90;;;;;;5054290;28;20040;-81
2023/09/01 02:57:27;;;;;;;7.40;4.38;;;11.40;99.90;;;;;;5072583;28;20056;-81
2023/09/01 02:59:53;;;;;;;5.38;4.43;;;11.40;99.90;;;;;;5083488;28;20109;-81
2023/09/01 03:02:19;;;;;;;5.57;3.95;;;11.50;99.90;;;;;;5072877;28;20106;-81
2023/09/01 03:04:47;;;;;;;8.55;4.82;;;11.50;99.90;;;;;;5072064;28;20057;-81
2023/09/01 03:07:12;;;;;;;6.95;4.47;;;11.40;99.90;;;;;;5072204;28;20414;-81
2023/09/01 03:09:38;;;;;;;9.25;4.57;;;11.40;99.90;;;;;;5070501;28;20041;-81
2023/09/01 03:12:04;;;;;;;6.03;4.45;;;11.50;99.90;;;;;;5071299;28;20040;-80
2023/09/01 03:14:30;;;;;;;8.68;4.95;;;11.50;99.90;;;;;;5075325;28;20037;-81
2023/09/01 03:16:56;;;;;;;6.05;4.25;;;11.40;99.90;;;;;;5083422;28;20055;-81
2023/09/01 03:19:21;;;;;;;5.97;4.70;;;11.40;99.90;;;;;;5089846;28;20359;-81
2023/09/01 03:21:47;;;;;;;7.80;4.90;;;11.40;99.90;;;;;;5091878;28;20055;-81
2023/09/01 03:24:13;;;;;;;5.55;5.00;;;11.40;99.90;;;;;;5089855;28;20040;-81
2023/09/01 03:26:38;;;;;;;6.57;4.57;;;11.40;99.90;;;;;;5076260;28;20040;-81
2023/09/01 03:29:04;;;;;;;4.72;4.20;;;11.40;99.90;;;;;;5089608;28;20094;-81
2023/09/01 03:31:31;;;;;;;5.50;4.72;;;11.40;99.90;;;;;;5078517;28;20036;-81
2023/09/01 03:33:57;;;;;;;6.53;4.55;;;11.40;99.90;;;;;;5071593;28;20091;-81
2023/09/01 03:36:23;;;;;;;6.15;4.72;;;11.40;99.90;;;;;;5069773;28;20521;-81
2023/09/01 03:38:48;;;;;;;5.80;4.53;;;11.40;99.90;;;;;;5077124;28;20044;-81
2023/09/01 03:41:14;;;;;;;5.45;4.35;;;11.30;99.90;;;;;;5074382;28;20036;-81
2023/09/01 03:43:40;;;;;;;9.07;4.93;;;11.20;99.90;;;;;;5090769;28;20147;-80
2023/09/01 03:46:05;;;;;;;4.53;4.07;;;11.30;99.90;;;;;;5080901;28;20093;-81
2023/09/01 03:48:31;;;;;;;5.50;4.45;;;11.20;99.90;;;;;;5087557;28;20062;-81
2023/09/01 03:51:10;;;;;;;8.00;4.75;;;11.20;99.90;;;;;;5084833;28;20573;-82
2023/09/01 03:53:37;;;;;;;7.90;4.25;;;11.20;99.90;;;;;;5071347;28;20049;-82
2023/09/01 03:56:08;;;;;;;4.65;4.15;;;11.20;99.90;;;;;;5076779;28;20048;-81
2023/09/01 03:58:34;;;;;;;5.35;4.30;;;11.10;99.90;;;;;;5082558;28;20047;-82
2023/09/01 04:01:00;;;;;;;5.65;5.05;;;11.10;99.90;;;;;;5089549;28;20047;-81
2023/09/01 04:03:25;;;;;;;6.55;4.72;;;11.10;99.90;;;;;;5091369;28;20058;-82
2023/09/01 04:05:57;;;;;;;4.90;4.28;;;11.00;99.90;;;;;;5089469;28;20414;-81
2023/09/01 04:08:23;;;;;;;4.93;4.45;;;11.00;99.90;;;;;;5091597;28;20054;-81
2023/09/01 04:10:48;;;;;;;4.90;4.47;;;11.90;99.90;;;;;;5090237;28;20039;-81
2023/09/01 04:13:14;;;;;;;5.95;4.50;;;11.00;99.90;;;;;;5081528;28;20181;-81
2023/09/01 04:15:39;;;;;;;8.45;5.53;;;10.90;99.90;;;;;;5070173;28;20040;-81
2023/09/01 04:18:05;;;;;;;6.40;4.80;;;10.90;99.90;;;;;;5068812;28;20052;-81
2023/09/01 04:20:30;;;;;;;6.95;5.03;;;10.90;99.90;;;;;;5071234;28;20044;-81
2023/09/01 04:22:56;;;;;;;6.40;5.60;;;10.90;99.90;;;;;;5069903;28;20455;-81
2023/09/01 04:25:22;;;;;;;6.93;5.13;;;11.00;99.90;;;;;;5073856;28;20114;-81
2023/09/01 04:27:47;;;;;;;6.40;4.53;;;10.90;99.90;;;;;;5071783;28;20048;-81
2023/09/01 04:30:13;;;;;;;7.10;5.13;;;10.80;99.90;;;;;;5080855;28;20119;-81
2023/09/01 04:32:40;;;;;;;7.22;5.10;;;10.80;99.90;;;;;;5081442;28;20040;-81
2023/09/01 04:35:07;;;;;;;5.82;5.10;;;10.80;99.90;;;;;;5065450;28;20044;-81
2023/09/01 04:37:32;;;;;;;7.10;5.43;;;10.80;99.90;;;;;;5089719;28;20658;-81
2023/09/01 04:39:58;;;;;;;7.38;4.70;;;10.70;99.90;;;;;;5090986;28;20040;-80
2023/09/01 04:42:23;;;;;;;6.30;5.47;;;10.70;99.90;;;;;;5072239;28;20041;-81
2023/09/01 04:44:49;;;;;;;7.28;5.25;;;10.70;99.90;;;;;;5086503;28;20201;-81
2023/09/01 04:47:14;;;;;;;6.38;5.60;;;10.70;99.90;;;;;;5071517;28;20040;-81
2023/09/01 04:49:40;;;;;;;9.00;5.43;;;10.70;99.90;;;;;;5084715;28;20064;-81
2023/09/01 04:52:05;;;;;;;12.27;5.20;;;10.70;99.90;;;;;;5081880;28;20084;-81
2023/09/01 04:54:31;;;;;;;5.53;4.93;;;10.70;99.90;;;;;;5069141;28;20401;-81
2023/09/01 04:56:57;;;;;;;7.68;4.95;;;10.70;99.90;;;;;;5077586;28;20119;-81
2023/09/01 04:59:22;;;;;;;5.97;5.38;;;10.60;99.90;;;;;;5076128;28;20143;-81
2023/09/01 05:01:49;;;;;;;7.65;5.57;;;10.70;99.90;;;;;;5066529;28;20044;-81
2023/09/01 05:04:15;;;;;;;7.18;5.93;;;10.70;99.90;;;;;;5068306;28;20200;-81
2023/09/01 05:06:41;;;;;;;6.50;5.57;;;10.70;99.90;;;;;;5071281;28;20048;-81
2023/09/01 05:09:06;;;;;;;9.18;6.38;;;10.70;99.90;;;;;;5070930;28;20520;-81
2023/09/01 05:11:32;;;;;;;7.47;5.32;;;10.70;99.90;;;;;;5074438;28;20490;-81
2023/09/01 05:13:57;;;;;;;6.95;6.20;;;10.70;99.90;;;;;;5080899;28;20044;-81
2023/09/01 05:16:23;;;;;;;7.57;6.55;;;10.80;99.90;;;;;;5079852;28;20048;-81
2023/09/01 05:18:48;;;;;;;6.15;5.53;;;10.80;99.90;;;;;;5072700;28;20051;-82
2023/09/01 05:21:14;;;;;;;7.45;5.47;;;10.90;99.90;;;;;;5075441;28;20062;-82
2023/09/01 05:23:39;;;;;;;7.75;5.75;;;10.90;99.90;;;;;;5080500;28;20490;-81
2023/09/01 05:26:05;;;;;;;8.07;5.68;;;10.90;99.90;;;;;;5080499;28;20047;-81
2023/09/01 05:28:31;;;;;;;6.45;5.85;;;11.00;99.90;;;;;;5090271;28;20040;-81
2023/09/01 05:30:57;;;;;;;10.48;6.25;;;11.10;99.90;;;;;;5086072;28;20089;-81
2023/09/01 05:33:22;;;;;;;11.88;6.30;;;11.10;99.90;;;;;;5083906;28;20044;-81
2023/09/01 05:35:48;;;;;;;9.02;6.22;;;11.10;99.90;;;;;;5077606;28;20822;-81
2023/09/01 05:38:14;;;;;;;8.93;5.70;;;11.20;99.90;;;;;;5077466;28;20036;-81
2023/09/01 05:40:40;;;;;;;7.13;6.10;;;11.30;99.90;;;;;;5082944;28;20044;-81
2023/09/01 05:43:05;;;;;;;9.85;6.45;;;11.30;99.90;;;;;;5084557;28;20059;-80
2023/09/01 05:45:31;;;;;;;8.20;5.80;;;11.40;99.90;;;;;;5089580;28;20135;-81
2023/09/01 05:47:57;;;;;;;7.28;5.72;;;11.40;99.90;;;;;;5079283;28;20410;-81
2023/09/01 05:50:22;;;;;;;8.00;6.15;;;11.50;99.90;;;;;;5075254;28;20410;-81
2023/09/01 05:52:48;;;;;;;8.77;6.18;;;11.50;99.90;;;;;;5075285;28;20415;-81
2023/09/01 05:55:13;;;;;;;10.95;6.43;;;11.60;99.90;;;;;;5075500;28;20130;-81
2023/09/01 05:57:40;;;;;;;8.82;6.10;;;11.70;99.90;;;;;;5089764;28;20040;-82
2023/09/01 06:00:07;;;;;;;8.98;6.05;;;11.70;99.90;;;;;;5093625;28;20052;-81
2023/09/01 06:02:32;;;;;;;8.57;5.88;;;11.80;99.90;;;;;;5080910;28;20055;-82
2023/09/01 06:04:58;;;;;;;7.95;5.80;;;11.90;99.90;;;;;;5081960;28;20044;-81
2023/09/01 06:07:23;;;;;;;9.52;5.82;;;12.00;99.90;;;;;;5088516;28;20134;-82
2023/09/01 06:09:49;;;;;;;7.47;5.50;;;12.10;99.90;;;;;;5111237;27;20548;-81
2023/09/01 06:12:15;;;;;;;8.63;5.55;;;12.10;99.90;;;;;;5093393;28;20040;-81
2023/09/01 06:14:41;;;;;;;5.75;5.10;;;12.20;99.90;;;;;;5095566;28;20098;-81
2023/09/01 06:17:06;;;;;;;6.70;5.60;;;12.20;99.90;;;;;;5095076;28;20044;-81
2023/09/01 06:19:32;;;;;;;8.40;5.90;;;12.30;99.90;;;;;;5093976;28;20039;-81
2023/09/01 06:21:57;;;;;;;9.90;6.10;;;12.30;99.90;;;;;;5081281;28;20095;-81
2023/09/01 06:24:23;;;;;;;6.85;5.95;;;12.40;99.90;;;;;;5073939;28;20058;-81
2023/09/01 06:26:49;;;;;;;6.57;5.78;;;12.50;99.90;;;;;;5083173;28;20047;-81
2023/09/01 06:29:14;;;;;;;10.70;6.30;;;12.60;99.90;;;;;;5095420;28;20490;-81
2023/09/01 06:31:40;;;;;;;8.95;6.10;;;12.70;99.90;;;;;;5095301;28;20044;-81
2023/09/01 06:34:05;;;;;;;7.47;5.95;;;12.90;99.90;;;;;;5093686;28;20090;-81
2023/09/01 06:36:31;;;;;;;7.95;7.03;;;13.00;99.90;;;;;;5094821;28;20058;-81
2023/09/01 06:38:57;;;;;;;10.38;7.75;;;13.20;99.90;;;;;;5076210;28;20431;-81
2023/09/01 06:41:22;;;;;;;13.00;8.65;;;13.30;99.90;;;;;;5080759;28;20108;-82
2023/09/01 06:43:48;;;;;;;11.27;8.95;;;13.40;99.90;;;;;;5093095;28;20076;-82
2023/09/01 06:46:14;;;;;;;12.68;8.75;;;13.60;99.90;;;;;;5094102;28;20051;-82
2023/09/01 06:48:40;;;;;;;15.02;10.27;;;13.70;99.90;;;;;;5087954;28;20541;-82
2023/09/01 06:51:06;;;;;;;14.35;11.02;;;13.70;99.90;;;;;;5074014;28;20084;-82
2023/09/01 06:53:33;;;;;;;17.25;11.07;;;13.90;99.90;;;;;;5086967;28;20090;-81
2023/09/01 06:55:58;;;;;;;12.60;11.40;;;14.00;99.90;;;;;;5109880;28;20105;-81
2023/09/01 06:58:24;;;;;;;14.98;11.50;;;14.10;99.90;;;;;;5089881;28;20044;-81
2023/09/01 07:00:51;;;;;;;11.90;10.80;;;14.20;99.90;;;;;;5072044;28;20152;-81
2023/09/01 07:03:17;;;;;;;15.60;11.57;;;14.40;99.90;;;;;;5069551;28;20084;-81
2023/09/01 07:05:43;;;;;;;16.48;12.57;;;14.50;99.90;;;;;;5070357;28;20037;-81
2023/09/01 07:08:14;;;;;;;16.55;13.32;;;14.70;99.90;;;;;;5084354;28;20109;-82
2023/09/01 07:10:40;;;;;;;16.80;12.87;;;14.80;99.90;;;;;;5053401;28;20048;-80
2023/09/01 07:13:08;;;;;;;13.13;11.55;;;14.90;99.90;;;;;;5070890;28;20837;-82
2023/09/01 07:15:34;;;;;;;15.43;13.30;;;15.00;99.90;;;;;;5079197;28;20101;-82
2023/09/01 07:18:00;;;;;;;14.05;12.02;;;15.10;99.90;;;;;;5053288;28;20561;-82
2023/09/01 07:20:25;;;;;;;17.17;12.63;;;15.20;99.90;;;;;;5072530;28;20950;-82
2023/09/01 07:22:51;;;;;;;13.82;11.65;;;15.20;99.90;;;;;;5091088;28;20040;-83
2023/09/01 07:25:16;;;;;;;12.43;11.13;;;15.30;99.90;;;;;;5090116;28;20051;-82
2023/09/01 07:27:42;;;;;;;12.10;10.77;;;15.40;99.90;;;;;;5091210;28;20101;-82
2023/09/01 07:30:13;;;;;;;12.60;10.88;;;15.50;99.90;;;;;;5074193;28;20053;-81
2023/09/01 07:32:40;;;;;;;11.00;9.63;;;15.60;99.90;;;;;;5069359;28;20060;-82
2023/09/01 07:35:06;;;;;;;17.35;10.13;;;15.80;99.90;;;;;;5068963;28;20514;-81
2023/09/01 07:37:31;;;;;;;11.90;9.77;;;15.80;99.90;;;;;;5070188;28;20041;-82
2023/09/01 07:39:57;;;;;;;11.75;10.48;;;15.90;99.90;;;;;;5080978;28;20051;-82
2023/09/01 07:42:23;;;;;;;12.05;10.68;;;16.00;99.90;;;;;;5089674;28;20060;-80
2023/09/01 07:44:48;;;;;;;12.85;10.02;;;16.10;99.90;;;;;;5071903;28;20051;-80
2023/09/01 07:47:14;;;;;;;12.93;10.15;;;16.20;99.90;;;;;;5089570;28;20565;-80
2023/09/01 07:49:39;;;;;;;12.15;10.27;;;16.30;99.90;;;;;;5089634;28;20051;-80
2023/09/01 07:52:05;;;;;;;10.35;9.15;;;16.30;99.90;;;;;;5088460;28;20044;-81
2023/09/01 07:54:31;;;;;;;13.60;11.02;;;16.30;99.90;;;;;;5078311;28;20573;-80
2023/09/01 07:56:57;;;;;;;11.43;10.18;;;16.30;99.90;;;;;;5066462;28;20486;-80
2023/09/01 07:59:23;;;;;;;16.50;10.90;;;16.30;99.90;;;;;;5060769;28;20151;-81
2023/09/01 08:01:49;;;;;;;14.75;11.30;;;16.40;99.90;;;;;;5085199;28;20055;-81
2023/09/01 08:04:14;;;;;;;13.55;11.02;;;16.40;99.90;;;;;;5077916;28;20580;-81
2023/09/01 08:06:40;;;;;;;12.00;10.70;;;16.50;99.90;;;;;;5076853;28;20036;-83
2023/09/01 08:09:05;;;;;;;12.15;10.85;;;16.50;99.90;;;;;;5079551;28;20552;-82
2023/09/01 08:11:31;;;;;;;14.35;11.60;;;16.60;99.90;;;;;;5069626;28;20131;-82
2023/09/01 08:13:57;;;;;;;16.17;12.27;;;16.60;99.90;;;;;;5068793;28;20056;-82
2023/09/01 08:16:23;;;;;;;14.88;12.68;;;16.60;99.90;;;;;;5079895;28;20043;-82
2023/09/01 08:18:48;;;;;;;14.48;12.45;;;16.70;99.90;;;;;;5071250;28;20386;-81
2023/09/01 08:21:14;;;;;;;17.85;12.73;;;16.70;99.90;;;;;;5076183;28;20413;-80
2023/09/01 08:23:40;;;;;;;12.98;11.45;;;16.80;99.90;;;;;;5078221;28;20533;-81
2023/09/01 08:26:06;;;;;;;15.65;13.15;;;16.80;99.90;;;;;;5086076;28;20040;-80
2023/09/01 08:28:31;;;;;;;15.98;12.48;;;16.80;99.90;;;;;;5068923;28;20040;-81
2023/09/01 08:31:04;;;;;;;13.63;12.05;;;16.90;99.90;;;;;;5069032;28;20056;-81
2023/09/01 08:33:30;;;;;;;19.38;12.50;;;16.90;99.90;;;;;;5068631;28;20056;-80
2023/09/01 08:35:55;;;;;;;15.10;13.25;;;17.00;99.90;;;;;;5069098;28;20032;-81
2023/09/01 08:38:21;;;;;;;14.25;12.75;;;17.10;99.90;;;;;;5068250;28;20140;-81
2023/09/01 08:40:48;;;;;;;14.95;12.63;;;17.20;99.90;;;;;;5082858;28;20055;-80
2023/09/01 08:43:15;;;;;;;14.50;12.18;;;17.30;99.90;;;;;;5085822;28;20062;-80
2023/09/01 08:45:42;;;;;;;17.10;12.75;;;17.30;99.90;;;;;;5079810;28;20131;-80
2023/09/01 08:48:08;;;;;;;15.35;12.02;;;17.40;99.90;;;;;;5068145;28;20133;-81
2023/09/01 08:50:34;;;;;;;15.73;11.52;;;17.50;99.90;;;;;;5085464;28;20101;-81
2023/09/01 08:53:02;;;;;;;15.05;12.50;;;17.50;99.90;;;;;;5087268;28;20051;-83
2023/09/01 08:55:27;;;;;;;12.23;9.73;;;17.60;99.90;;;;;;5090539;28;20048;-81
2023/09/01 08:57:53;;;;;;;11.88;9.45;;;17.70;99.90;;;;;;5080804;28;20041;-81
2023/09/01 09:00:18;;;;;;;11.57;10.10;;;17.80;99.90;;;;;;5077983;28;20042;-81
2023/09/01 09:02:45;;;;;;;12.98;10.73;;;17.80;99.90;;;;;;5087126;28;20402;-81
2023/09/01 09:05:13;;;;;;;12.57;11.27;;;17.80;99.90;;;;;;5087035;28;20067;-81
2023/09/01 09:07:39;;;;;;;12.32;10.80;;;17.80;99.90;;;;;;5087379;28;20450;-80
2023/09/01 09:10:06;;;;;;;13.70;12.07;;;17.80;99.90;;;;;;5086723;28;20039;-80
2023/09/01 09:12:39;;;;;;;13.90;11.85;;;18.00;99.90;;;;;;5088062;28;20036;-82
2023/09/01 09:15:05;;;;;;;16.30;12.77;;;18.00;99.90;;;;;;5086636;28;20896;-82
2023/09/01 09:17:57;;;;;;;16.50;13.10;;;18.10;99.90;;;;;;5081373;28;20047;-82
2023/09/01 09:20:38;;;;;;;15.65;12.02;;;18.20;99.90;;;;;;5082151;28;20056;-82
2023/09/01 09:23:04;;;;;;;15.13;12.95;;;18.30;99.90;;;;;;5067480;28;20048;-83
2023/09/01 09:25:31;;;;;;;18.38;13.23;;;18.40;99.90;;;;;;5066694;28;20060;-81
2023/09/01 09:28:09;;;;;;;13.55;11.77;;;18.50;99.90;;;;;;5067936;28;20040;-80
2023/09/01 09:30:35;;;;;;;15.43;11.70;;;18.60;99.90;;;;;;5072486;28;20204;-80
2023/09/01 09:33:02;;;;;;;16.27;11.77;;;18.70;99.90;;;;;;5084680;28;20725;-81
2023/09/01 09:35:28;;;;;;;17.45;13.23;;;19.10;99.90;;;;;;5077097;28;20048;-81
2023/09/01 09:37:58;;;;;;;17.65;12.55;;;18.70;99.90;;;;;;5070073;28;20121;-81
2023/09/01 09:40:24;;;;;;;15.77;11.82;;;18.90;99.90;;;;;;5073188;28;20090;-80
2023/09/01 09:42:49;;;;;;;15.57;12.88;;;18.90;99.90;;;;;;5064729;28;20490;-82
2023/09/01 09:45:23;;;;;;;15.98;11.90;;;19.10;99.90;;;;;;5086643;28;20391;-82
2023/09/01 09:47:49;;;;;;;15.18;12.80;;;19.10;99.90;;;;;;5067186;28;20037;-82
2023/09/01 09:50:17;;;;;;;17.95;12.02;;;19.20;99.90;;;;;;5077176;28;20064;-81
2023/09/01 09:52:48;;;;;;;14.45;11.30;;;19.30;99.90;;;;;;5077815;28;20133;-80
2023/09/01 09:55:24;;;;;;;13.43;10.60;;;19.30;99.90;;;;;;5085280;28;20817;-80
2023/09/01 09:57:50;;;;;;;12.32;9.80;;;19.30;99.90;;;;;;5082443;28;20448;-80
2023/09/01 10:00:19;;;;;;;13.23;9.63;;;19.30;99.90;;;;;;5068346;28;20037;-80
2023/09/01 10:02:50;;;;;;;13.55;10.30;;;19.40;99.90;;;;;;5085065;28;20063;-80
2023/09/01 10:05:17;;;;;;;11.75;9.90;;;19.40;99.90;;;;;;5070743;28;20094;-80
2023/09/01 10:07:43;;;;;;;14.30;7.10;;;19.50;99.90;;;;;;5072176;28;20048;-80
2023/09/01 10:10:11;;;;;;;12.82;8.30;;;19.60;99.90;;;;;;5076954;28;20040;-80
2023/09/01 10:12:37;;;;;;;12.57;8.65;;;19.80;99.90;;;;;;5077635;28;20036;-80
2023/09/01 10:15:03;;;;;;;13.88;8.00;;;19.80;99.90;;;;;;5088342;28;20044;-80
2023/09/01 10:17:34;;;;;;;8.88;6.93;;;19.70;99.90;;;;;;5087688;28;20091;-80
2023/09/01 10:20:00;;;;;;;12.95;8.63;;;19.70;99.90;;;;;;5066626;28;20041;-80
2023/09/01 10:22:26;;;;;;;11.65;7.82;;;19.50;99.90;;;;;;5081676;28;20180;-80
2023/09/01 10:25:18;;;;;;;13.20;7.65;;;19.50;99.90;;;;;;5069729;28;20433;-81
2023/09/01 10:28:04;;;;;;;11.70;7.60;;;19.50;99.90;;;;;;5077428;28;20424;-81
2023/09/01 10:30:37;;;;;;;12.57;8.07;;;19.40;99.90;;;;;;5071162;28;20044;-80
2023/09/01 10:33:16;;;;;;;14.90;8.10;;;19.60;99.90;;;;;;5087095;28;20153;-80
2023/09/01 10:35:46;;;;;;;14.23;8.18;;;19.30;99.90;;;;;;5070431;28;20408;-80
2023/09/01 10:38:20;;;;;;;12.95;8.48;;;19.60;99.90;;;;;;5070599;28;20041;-80
2023/09/01 10:40:54;;;;;;;11.90;9.73;;;19.40;99.90;;;;;;5071782;28;20059;-80
2023/09/01 10:43:35;;;;;;;13.23;8.43;;;19.40;99.90;;;;;;5090911;28;20200;-79
2023/09/01 10:46:12;;;;;;;12.40;8.15;;;19.40;99.90;;;;;;5089156;28;20568;-79
2023/09/01 10:48:51;;;;;;;12.10;7.75;;;19.30;99.90;;;;;;5082221;28;20574;-80
2023/09/01 10:51:21;;;;;;;10.43;7.70;;;19.40;99.90;;;;;;5070274;28;20051;-79
2023/09/01 10:53:51;;;;;;;10.27;7.35;;;19.30;99.90;;;;;;5070587;28;20046;-80
2023/09/01 10:56:19;;;;;;;12.32;7.80;;;19.30;99.90;;;;;;5068989;28;20053;-80
2023/09/01 10:58:52;;;;;;;11.80;7.68;;;19.20;99.90;;;;;;5070318;28;20048;-80
2023/09/01 11:01:28;;;;;;;11.40;7.00;;;19.20;99.90;;;;;;5070651;28;20048;-80
2023/09/01 11:03:54;;;;;;;8.98;6.35;;;19.30;99.90;;;;;;5068412;28;20563;-79
2023/09/01 11:06:22;;;;;;;9.85;6.80;;;19.20;99.90;;;;;;5070618;28;20566;-79
2023/09/01 11:09:00;;;;;;;10.52;6.72;;;19.30;99.90;;;;;;5070269;28;20059;-79
2023/09/01 11:11:27;;;;;;;8.68;6.53;;;19.40;99.90;;;;;;5070335;28;20040;-80
2023/09/01 11:13:54;;;;;;;9.48;6.80;;;19.40;99.90;;;;;;5080110;28;20047;-80
2023/09/01 11:16:20;;;;;;;11.15;6.68;;;19.30;99.90;;;;;;5077096;28;20036;-79
2023/09/01 11:18:57;;;;;;;9.30;6.07;;;19.20;99.90;;;;;;5051818;28;20059;-80
2023/09/01 11:21:24;;;;;;;10.15;6.15;;;19.20;99.90;;;;;;5068887;28;20059;-81
2023/09/01 11:23:49;;;;;;;8.23;5.82;;;19.50;99.90;;;;;;5070323;28;20701;-80
2023/09/01 11:26:15;;;;;;;9.63;6.47;;;19.20;99.90;;;;;;5070205;28;20051;-79
2023/09/01 11:28:41;;;;;;;7.63;5.97;;;19.20;99.90;;;;;;5068198;28;20053;-79
2023/09/01 11:31:07;;;;;;;9.60;5.70;;;19.20;99.90;;;;;;5069726;28;20712;-79
2023/09/01 11:33:36;;;;;;;6.90;5.28;;;19.30;99.90;;;;;;5069439;28;20040;-79
2023/09/01 11:36:11;;;;;;;9.88;5.50;;;19.30;99.90;;;;;;5072197;28;20048;-80
2023/09/01 11:38:37;;;;;;;6.72;5.40;;;19.50;99.90;;;;;;5089849;28;20051;-80
2023/09/01 11:41:05;;;;;;;6.03;5.20;;;19.50;99.90;;;;;;5090178;28;20052;-80
2023/09/01 11:43:31;;;;;;;6.68;5.75;;;19.60;99.90;;;;;;5089749;28;20786;-80
2023/09/01 11:45:56;;;;;;;7.82;5.45;;;19.80;99.90;;;;;;5086802;28;20044;-80
2023/09/01 11:48:28;;;;;;;8.75;5.65;;;19.90;99.90;;;;;;5088938;28;20393;-80
2023/09/01 11:50:54;;;;;;;9.67;5.80;;;19.80;99.90;;;;;;5089457;28;20052;-80
2023/09/01 11:53:26;;;;;;;8.48;5.40;;;19.90;99.90;;;;;;5089672;28;20376;-80
2023/09/01 11:55:58;;;;;;;10.68;5.15;;;19.70;99.90;;;;;;5089440;28;20060;-82
2023/09/01 11:58:33;;;;;;;8.65;6.03;;;19.70;99.90;;;;;;5072940;28;20083;-81
2023/09/01 12:01:13;;;;;;;8.38;5.65;;;19.70;99.90;;;;;;5068903;28;20040;-80
2023/09/01 12:03:47;;;;;;;8.40;5.43;;;19.80;99.90;;;;;;5069267;28;20108;-81
2023/09/01 12:06:26;;;;;;;10.45;5.57;;;19.80;99.90;;;;;;5050576;28;20097;-82
2023/09/01 12:08:54;;;;;;;8.00;5.65;;;19.80;99.90;;;;;;5083629;28;20035;-81
2023/09/01 12:11:20;;;;;;;10.15;5.35;;;19.80;99.90;;;;;;5088916;28;20058;-81
2023/09/01 12:13:46;;;;;;;9.85;5.68;;;19.80;99.90;;;;;;5087665;28;20466;-81
2023/09/01 12:16:23;;;;;;;8.57;5.25;;;19.90;99.90;;;;;;5087813;28;20036;-81
2023/09/01 12:18:49;;;;;;;9.90;5.05;;;19.90;99.90;;;;;;5084978;28;20123;-81
2023/09/01 12:21:15;;;;;;;10.25;5.45;;;20.00;99.90;;;;;;5086944;28;20040;-81
2023/09/01 12:23:46;;;;;;;8.35;4.35;;;20.10;99.90;;;;;;5088097;28;20398;-81
2023/09/01 12:26:13;;;;;;;8.88;4.50;;;20.00;99.90;;;;;;5088193;28;20048;-81
2023/09/01 12:28:41;;;;;;;7.82;4.45;;;20.10;99.90;;;;;;5075803;28;20048;-81
2023/09/01 12:31:08;;;;;;;8.38;4.60;;;20.10;99.90;;;;;;5089472;28;20048;-81
2023/09/01 12:33:34;;;;;;;5.28;3.70;;;20.30;99.90;;;;;;5088720;28;20040;-81
2023/09/01 12:36:00;;;;;;;7.28;4.82;;;20.40;99.90;;;;;;5087971;28;20052;-81
2023/09/01 12:38:26;;;;;;;9.10;4.72;;;20.30;99.90;;;;;;5088705;28;20047;-82
2023/09/01 12:40:52;;;;;;;6.13;4.00;;;20.30;99.90;;;;;;5087409;28;20048;-81
2023/09/01 12:43:18;;;;;;;7.88;4.28;;;20.30;99.90;;;;;;5083357;28;20033;-81